createdAt,value
2019-02-27T00:00:59.625Z,0.00
2019-02-27T00:01:59.598Z,0.00
2019-02-27T00:02:59.580Z,0.00
2019-02-27T00:03:59.863Z,0.00
2019-02-27T00:04:59.615Z,0.00
2019-02-27T00:05:59.646Z,0.00
2019-02-27T00:06:59.537Z,0.00
2019-02-27T00:07:59.559Z,0.00
2019-02-27T00:09:00.477Z,0.00
2019-02-27T00:09:59.491Z,0.00
2019-02-27T00:10:59.487Z,0.00
2019-02-27T00:11:59.594Z,0.00
2019-02-27T00:12:59.498Z,0.00
2019-02-27T00:13:59.461Z,0.00
2019-02-27T00:15:04.489Z,0.00
2019-02-27T00:16:00.432Z,0.00
2019-02-27T00:16:59.547Z,0.00
2019-02-27T00:17:59.407Z,0.00
2019-02-27T00:18:59.446Z,0.00
2019-02-27T00:20:04.168Z,0.00
2019-02-27T00:20:59.367Z,0.00
2019-02-27T00:21:59.392Z,0.00
2019-02-27T00:22:59.378Z,0.00
2019-02-27T00:23:59.343Z,0.00
2019-02-27T00:25:03.015Z,0.00
2019-02-27T00:25:59.327Z,0.00
2019-02-27T00:26:59.308Z,0.00
2019-02-27T00:27:59.323Z,0.00
2019-02-27T00:28:59.283Z,0.00
2019-02-27T00:29:59.494Z,0.00
2019-02-27T00:30:59.309Z,0.00
2019-02-27T00:31:59.245Z,0.00
2019-02-27T00:32:59.242Z,0.00
2019-02-27T00:33:59.855Z,0.00
2019-02-27T00:34:59.238Z,0.00
2019-02-27T00:35:59.213Z,0.00
2019-02-27T00:36:59.213Z,0.00
2019-02-27T00:37:59.194Z,0.00
2019-02-27T00:38:59.221Z,0.00
2019-02-27T00:39:59.164Z,0.00
2019-02-27T00:40:59.151Z,0.00
2019-02-27T00:41:59.147Z,0.00
2019-02-27T00:42:59.147Z,0.00
2019-02-27T00:44:01.349Z,0.00
2019-02-27T00:44:59.128Z,0.00
2019-02-27T00:45:59.105Z,0.00
2019-02-27T00:46:59.087Z,0.00
2019-02-27T00:47:59.078Z,0.00
2019-02-27T00:48:59.816Z,0.00
2019-02-27T00:49:59.074Z,0.00
2019-02-27T00:50:59.085Z,0.00
2019-02-27T00:51:59.061Z,0.00
2019-02-27T00:52:59.020Z,0.00
2019-02-27T00:53:59.041Z,0.00
2019-02-27T00:54:59.027Z,0.00
2019-02-27T00:55:59.094Z,0.00
2019-02-27T00:56:59.051Z,0.00
2019-02-27T00:57:59.004Z,0.00
2019-02-27T00:59:00.214Z,0.00
2019-02-27T00:59:58.992Z,0.00
2019-02-27T01:00:58.992Z,0.00
2019-02-27T01:01:58.933Z,0.00
2019-02-27T01:02:58.926Z,0.00
2019-02-27T01:04:02.191Z,0.00
2019-02-27T01:04:58.904Z,0.00
2019-02-27T01:05:58.902Z,0.00
2019-02-27T01:06:58.891Z,0.00
2019-02-27T01:07:58.846Z,0.00
2019-02-27T01:08:58.861Z,0.00
2019-02-27T01:09:58.843Z,0.00
2019-02-27T01:10:58.822Z,0.00
2019-02-27T01:11:58.878Z,0.00
2019-02-27T01:12:58.854Z,0.00
2019-02-27T01:13:58.780Z,0.00
2019-02-27T01:14:58.775Z,0.00
2019-02-27T01:15:58.798Z,0.00
2019-02-27T01:16:58.775Z,0.00
2019-02-27T01:17:58.735Z,0.00
2019-02-27T01:18:58.767Z,0.00
2019-02-27T01:19:58.728Z,0.00
2019-02-27T01:20:58.728Z,0.00
2019-02-27T01:21:58.694Z,0.00
2019-02-27T01:22:58.706Z,0.00
2019-02-27T01:23:58.669Z,0.00
2019-02-27T01:24:58.661Z,0.00
2019-02-27T01:25:58.650Z,0.00
2019-02-27T01:26:58.682Z,0.00
2019-02-27T01:27:58.673Z,0.00
2019-02-27T01:28:58.621Z,0.00
2019-02-27T01:29:58.623Z,0.00
2019-02-27T01:30:58.596Z,0.00
2019-02-27T01:31:58.582Z,0.00
2019-02-27T01:32:58.577Z,0.00
2019-02-27T01:33:58.592Z,0.00
2019-02-27T01:34:58.551Z,0.00
2019-02-27T01:35:58.540Z,0.00
2019-02-27T01:36:58.625Z,0.00
2019-02-27T01:37:58.526Z,0.00
2019-02-27T01:38:58.514Z,0.00
2019-02-27T01:39:58.503Z,0.00
2019-02-27T01:40:58.538Z,0.00
2019-02-27T01:41:58.610Z,0.00
2019-02-27T01:42:58.478Z,0.00
2019-02-27T01:43:58.462Z,0.00
2019-02-27T01:44:58.457Z,0.00
2019-02-27T01:45:58.431Z,0.00
2019-02-27T01:47:01.882Z,0.00
2019-02-27T01:47:58.431Z,0.00
2019-02-27T01:48:58.413Z,0.00
2019-02-27T01:50:16.563Z,0.00
2019-02-27T01:50:59.372Z,0.00
2019-02-27T01:51:59.147Z,0.00
2019-02-27T01:52:58.438Z,0.00
2019-02-27T01:53:58.348Z,0.00
2019-02-27T01:54:58.338Z,0.00
2019-02-27T01:55:58.350Z,0.00
2019-02-27T01:56:59.913Z,0.00
2019-02-27T01:57:58.307Z,0.00
2019-02-27T01:58:58.287Z,0.00
2019-02-27T01:59:58.448Z,0.00
2019-02-27T02:00:58.255Z,0.00
2019-02-27T02:01:58.266Z,0.00
2019-02-27T02:02:58.290Z,0.00
2019-02-27T02:03:58.267Z,0.00
2019-02-27T02:04:58.258Z,0.00
2019-02-27T02:05:59.219Z,0.00
2019-02-27T02:06:58.207Z,0.00
2019-02-27T02:07:58.200Z,0.00
2019-02-27T02:08:58.173Z,0.00
2019-02-27T02:09:58.198Z,0.00
2019-02-27T02:10:58.846Z,0.00
2019-02-27T02:11:58.148Z,0.00
2019-02-27T02:12:58.146Z,0.00
2019-02-27T02:13:58.505Z,0.00
2019-02-27T02:14:58.120Z,0.00
2019-02-27T02:16:00.900Z,0.00
2019-02-27T02:16:58.098Z,0.00
2019-02-27T02:17:58.090Z,0.00
2019-02-27T02:18:58.153Z,0.00
2019-02-27T02:19:58.086Z,0.00
2019-02-27T02:21:00.879Z,0.00
2019-02-27T02:21:58.047Z,0.00
2019-02-27T02:22:58.023Z,0.00
2019-02-27T02:23:58.049Z,0.00
2019-02-27T02:24:57.994Z,0.00
2019-02-27T02:26:01.100Z,0.00
2019-02-27T02:26:58.019Z,0.00
2019-02-27T02:27:58.918Z,0.00
2019-02-27T02:28:58.131Z,0.00
2019-02-27T02:29:57.976Z,0.00
2019-02-27T02:30:57.936Z,0.00
2019-02-27T02:31:57.961Z,0.00
2019-02-27T02:32:57.921Z,0.00
2019-02-27T02:33:57.915Z,0.00
2019-02-27T02:34:57.899Z,0.00
2019-02-27T02:35:57.912Z,0.00
2019-02-27T02:37:01.480Z,0.00
2019-02-27T02:37:57.860Z,0.00
2019-02-27T02:38:57.865Z,0.00
2019-02-27T02:39:57.890Z,0.00
2019-02-27T02:40:57.839Z,0.00
2019-02-27T02:41:57.877Z,0.00
2019-02-27T02:42:59.096Z,0.00
2019-02-27T02:43:57.868Z,0.00
2019-02-27T02:44:58.455Z,0.00
2019-02-27T02:45:57.776Z,0.00
2019-02-27T02:46:57.796Z,0.00
2019-02-27T02:47:57.781Z,0.00
2019-02-27T02:48:57.747Z,0.00
2019-02-27T02:49:57.777Z,0.00
2019-02-27T02:50:57.742Z,0.00
2019-02-27T02:51:57.714Z,0.00
2019-02-27T02:52:57.688Z,0.00
2019-02-27T02:54:01.876Z,0.00
2019-02-27T02:54:57.708Z,0.00
2019-02-27T02:55:57.660Z,0.00
2019-02-27T02:57:00.490Z,0.00
2019-02-27T02:57:57.717Z,0.00
2019-02-27T02:58:57.656Z,0.00
2019-02-27T02:59:59.894Z,0.00
2019-02-27T03:00:57.598Z,0.00
2019-02-27T03:01:57.643Z,0.00
2019-02-27T03:03:00.947Z,0.00
2019-02-27T03:03:57.578Z,0.00
2019-02-27T03:04:57.647Z,0.00
2019-02-27T03:05:59.706Z,0.00
2019-02-27T03:06:57.596Z,0.00
2019-02-27T03:07:57.526Z,0.00
2019-02-27T03:08:57.501Z,0.00
2019-02-27T03:09:57.529Z,0.00
2019-02-27T03:10:57.486Z,0.00
2019-02-27T03:11:57.500Z,0.00
2019-02-27T03:12:57.477Z,0.00
2019-02-27T03:13:57.455Z,0.00
2019-02-27T03:14:58.424Z,0.00
2019-02-27T03:15:57.455Z,0.00
2019-02-27T03:16:57.457Z,0.00
2019-02-27T03:17:57.441Z,0.00
2019-02-27T03:18:57.400Z,0.00
2019-02-27T03:19:57.495Z,0.00
2019-02-27T03:20:57.375Z,0.00
2019-02-27T03:22:03.230Z,0.00
2019-02-27T03:22:58.387Z,0.00
2019-02-27T03:23:57.351Z,0.00
2019-02-27T03:25:03.295Z,0.00
2019-02-27T03:25:58.328Z,0.00
2019-02-27T03:26:57.312Z,0.00
2019-02-27T03:27:57.363Z,0.00
2019-02-27T03:28:57.329Z,0.00
2019-02-27T03:29:57.306Z,0.00
2019-02-27T03:30:57.267Z,0.00
2019-02-27T03:32:00.481Z,0.00
2019-02-27T03:32:57.306Z,0.00
2019-02-27T03:34:05.446Z,0.00
2019-02-27T03:34:57.237Z,0.00
2019-02-27T03:35:59.869Z,0.00
2019-02-27T03:36:58.202Z,0.00
2019-02-27T03:37:57.222Z,0.00
2019-02-27T03:38:59.210Z,0.00
2019-02-27T03:39:57.177Z,0.00
2019-02-27T03:40:57.160Z,0.00
2019-02-27T03:41:59.308Z,0.00
2019-02-27T03:42:57.164Z,0.00
2019-02-27T03:43:57.288Z,0.00
2019-02-27T03:44:59.922Z,0.00
2019-02-27T03:45:57.427Z,0.00
2019-02-27T03:46:57.085Z,0.00
2019-02-27T03:47:57.072Z,0.00
2019-02-27T03:49:03.164Z,0.00
2019-02-27T03:49:58.090Z,0.00
2019-02-27T03:50:57.038Z,0.00
2019-02-27T03:52:00.633Z,0.00
2019-02-27T03:52:57.065Z,0.00
2019-02-27T03:53:56.995Z,0.00
2019-02-27T03:54:58.218Z,0.00
2019-02-27T03:55:56.988Z,0.00
2019-02-27T03:56:57.042Z,0.00
2019-02-27T03:57:56.983Z,0.00
2019-02-27T03:58:56.992Z,0.00
2019-02-27T03:59:56.934Z,0.00
2019-02-27T04:00:56.943Z,0.00
2019-02-27T04:01:56.942Z,0.00
2019-02-27T04:02:56.891Z,0.00
2019-02-27T04:03:56.903Z,0.00
2019-02-27T04:04:56.989Z,0.00
2019-02-27T04:05:56.969Z,0.00
2019-02-27T04:06:57.288Z,0.00
2019-02-27T04:07:56.843Z,0.00
2019-02-27T04:08:57.382Z,0.00
2019-02-27T04:09:56.824Z,0.00
2019-02-27T04:10:56.815Z,0.00
2019-02-27T04:11:56.840Z,0.00
2019-02-27T04:12:56.831Z,0.00
2019-02-27T04:14:03.259Z,0.00
2019-02-27T04:14:57.782Z,0.00
2019-02-27T04:15:56.829Z,0.00
2019-02-27T04:16:56.745Z,0.00
2019-02-27T04:17:56.773Z,0.00
2019-02-27T04:19:02.952Z,0.00
2019-02-27T04:19:56.723Z,0.00
2019-02-27T04:20:56.734Z,0.00
2019-02-27T04:22:00.463Z,0.00
2019-02-27T04:22:56.705Z,0.00
2019-02-27T04:23:56.669Z,0.00
2019-02-27T04:24:57.704Z,0.00
2019-02-27T04:25:56.678Z,0.00
2019-02-27T04:26:56.688Z,0.00
2019-02-27T04:27:56.620Z,0.00
2019-02-27T04:28:56.622Z,0.00
2019-02-27T04:29:56.601Z,0.00
2019-02-27T04:30:56.634Z,0.00
2019-02-27T04:31:56.578Z,0.00
2019-02-27T04:32:56.595Z,0.00
2019-02-27T04:33:59.884Z,0.00
2019-02-27T04:36:04.437Z,0.00
2019-02-27T04:37:04.536Z,0.00
2019-02-27T04:38:04.398Z,0.00
2019-02-27T04:39:04.407Z,0.00
2019-02-27T04:40:04.312Z,0.00
2019-02-27T04:41:04.435Z,0.00
2019-02-27T04:42:04.297Z,0.00
2019-02-27T04:43:04.240Z,0.00
2019-02-27T04:44:06.048Z,0.00
2019-02-27T04:45:04.225Z,0.00
2019-02-27T04:46:04.883Z,0.00
2019-02-27T04:47:04.170Z,0.00
2019-02-27T04:48:04.203Z,0.00
2019-02-27T04:49:05.094Z,0.00
2019-02-27T04:50:04.162Z,0.00
2019-02-27T04:51:04.158Z,0.00
2019-02-27T04:52:04.115Z,0.00
2019-02-27T04:53:04.118Z,0.00
2019-02-27T04:54:06.633Z,0.00
2019-02-27T04:55:04.093Z,0.00
2019-02-27T04:56:04.095Z,0.00
2019-02-27T04:57:04.061Z,0.00
2019-02-27T04:58:04.119Z,0.00
2019-02-27T04:59:04.873Z,0.00
2019-02-27T05:00:04.040Z,0.00
2019-02-27T05:01:04.063Z,0.00
2019-02-27T05:02:04.017Z,0.00
2019-02-27T05:03:04.055Z,0.00
2019-02-27T05:04:04.038Z,0.00
2019-02-27T05:05:06.181Z,0.00
2019-02-27T05:06:03.984Z,0.00
2019-02-27T05:07:03.955Z,0.00
2019-02-27T05:08:03.982Z,0.00
2019-02-27T05:09:03.964Z,0.00
2019-02-27T05:10:06.882Z,0.00
2019-02-27T05:11:03.948Z,0.00
2019-02-27T05:12:03.891Z,0.00
2019-02-27T05:13:03.896Z,0.00
2019-02-27T05:14:03.890Z,0.00
2019-02-27T05:15:04.913Z,0.00
2019-02-27T05:16:14.785Z,0.00
2019-02-27T05:17:03.928Z,0.00
2019-02-27T05:18:03.950Z,0.00
2019-02-27T05:19:04.122Z,0.00
2019-02-27T05:20:03.969Z,0.00
2019-02-27T05:21:04.446Z,0.00
2019-02-27T05:22:03.798Z,0.00
2019-02-27T05:23:03.809Z,0.00
2019-02-27T05:24:05.208Z,0.00
2019-02-27T05:25:03.807Z,0.00
2019-02-27T05:26:03.794Z,0.00
2019-02-27T05:27:03.741Z,0.00
2019-02-27T05:28:03.721Z,0.00
2019-02-27T05:29:03.716Z,0.00
2019-02-27T05:30:03.735Z,4.00
2019-02-27T05:31:03.695Z,4.00
2019-02-27T05:32:03.721Z,0.00
2019-02-27T05:33:03.690Z,0.00
2019-02-27T05:34:03.676Z,4.00
2019-02-27T05:35:03.668Z,4.00
2019-02-27T05:36:03.639Z,4.00
2019-02-27T05:37:05.262Z,4.00
2019-02-27T05:38:03.638Z,8.00
2019-02-27T05:39:03.596Z,8.00
2019-02-27T05:40:03.597Z,12.00
2019-02-27T05:41:03.585Z,12.00
2019-02-27T05:42:06.077Z,16.00
2019-02-27T05:43:03.617Z,16.00
2019-02-27T05:44:03.588Z,20.00
2019-02-27T05:45:03.562Z,24.00
2019-02-27T05:46:03.851Z,32.00
2019-02-27T05:47:03.524Z,36.00
2019-02-27T05:48:03.549Z,40.00
2019-02-27T05:49:03.484Z,44.00
2019-02-27T05:50:03.557Z,52.00
2019-02-27T05:51:04.928Z,56.00
2019-02-27T05:52:03.464Z,64.00
2019-02-27T05:53:03.449Z,72.00
2019-02-27T05:54:03.461Z,80.00
2019-02-27T05:55:06.137Z,88.00
2019-02-27T05:56:03.457Z,100.00
2019-02-27T05:57:03.441Z,108.00
2019-02-27T05:58:03.396Z,116.00
2019-02-27T05:59:03.410Z,128.00
2019-02-27T06:00:03.573Z,140.00
2019-02-27T06:01:05.014Z,148.00
2019-02-27T06:02:03.387Z,164.00
2019-02-27T06:03:03.367Z,176.00
2019-02-27T06:04:03.330Z,188.00
2019-02-27T06:05:03.470Z,200.00
2019-02-27T06:06:03.353Z,216.00
2019-02-27T06:07:03.298Z,232.00
2019-02-27T06:08:03.920Z,248.00
2019-02-27T06:09:03.303Z,264.00
2019-02-27T06:10:03.356Z,280.00
2019-02-27T06:11:03.913Z,300.00
2019-02-27T06:12:06.635Z,316.00
2019-02-27T06:13:03.941Z,336.00
2019-02-27T06:14:03.264Z,356.00
2019-02-27T06:15:03.212Z,376.00
2019-02-27T06:16:06.600Z,396.00
2019-02-27T06:17:03.257Z,416.00
2019-02-27T06:18:03.227Z,436.00
2019-02-27T06:19:03.161Z,456.00
2019-02-27T06:20:07.697Z,480.00
2019-02-27T06:21:04.235Z,496.00
2019-02-27T06:22:03.154Z,512.00
2019-02-27T06:23:04.483Z,532.00
2019-02-27T06:24:03.117Z,552.00
2019-02-27T06:25:03.134Z,572.00
2019-02-27T06:26:03.158Z,588.00
2019-02-27T06:27:06.062Z,604.00
2019-02-27T06:28:03.075Z,616.00
2019-02-27T06:29:03.055Z,632.00
2019-02-27T06:30:03.053Z,648.00
2019-02-27T06:31:03.935Z,672.00
2019-02-27T06:32:03.056Z,692.00
2019-02-27T06:33:02.999Z,712.00
2019-02-27T06:34:03.031Z,732.00
2019-02-27T06:35:24.851Z,752.00
2019-02-27T06:36:05.386Z,772.00
2019-02-27T06:37:03.026Z,788.00
2019-02-27T06:38:02.995Z,796.00
2019-02-27T06:39:02.949Z,812.00
2019-02-27T06:40:04.728Z,840.00
2019-02-27T06:41:03.009Z,864.00
2019-02-27T06:42:02.909Z,880.00
2019-02-27T06:43:02.937Z,892.00
2019-02-27T06:44:02.898Z,908.00
2019-02-27T06:45:02.884Z,924.00
2019-02-27T06:46:02.901Z,936.00
2019-02-27T06:47:05.610Z,952.00
2019-02-27T06:48:02.942Z,968.00
2019-02-27T06:49:03.443Z,980.00
2019-02-27T06:50:02.822Z,992.00
2019-02-27T06:51:02.900Z,1008.00
2019-02-27T06:52:02.825Z,1020.00
2019-02-27T06:53:05.462Z,1032.00
2019-02-27T06:54:02.771Z,1048.00
2019-02-27T06:55:02.821Z,1068.00
2019-02-27T06:56:03.480Z,1084.00
2019-02-27T06:57:05.341Z,1096.00
2019-02-27T06:58:02.754Z,1108.00
2019-02-27T06:59:03.455Z,1120.00
2019-02-27T07:00:03.128Z,1136.00
2019-02-27T07:01:03.722Z,1148.00
2019-02-27T07:02:02.720Z,1160.00
2019-02-27T07:03:02.732Z,1172.00
2019-02-27T07:04:04.796Z,1176.00
2019-02-27T07:07:31.241Z,1188.00
2019-02-27T07:08:29.951Z,1196.00
2019-02-27T07:09:30.146Z,1204.00
2019-02-27T07:10:29.971Z,1212.00
2019-02-27T07:11:29.764Z,1220.00
2019-02-27T07:12:29.747Z,1224.00
2019-02-27T07:13:30.042Z,1228.00
2019-02-27T07:14:29.671Z,1236.00
2019-02-27T07:15:29.705Z,1244.00
2019-02-27T07:16:30.722Z,1252.00
2019-02-27T07:17:31.724Z,1252.00
2019-02-27T07:18:29.696Z,1256.00
2019-02-27T07:19:29.644Z,1256.00
2019-02-27T07:20:30.681Z,1260.00
2019-02-27T07:21:32.820Z,1264.00
2019-02-27T07:22:29.607Z,1268.00
2019-02-27T07:23:29.574Z,1272.00
2019-02-27T07:24:30.613Z,1284.00
2019-02-27T07:25:29.569Z,1292.00
2019-02-27T07:26:30.623Z,1292.00
2019-02-27T07:27:31.325Z,1304.00
2019-02-27T07:28:29.579Z,1308.00
2019-02-27T07:29:29.534Z,1316.00
2019-02-27T07:30:29.545Z,1324.00
2019-02-27T07:31:29.518Z,1324.00
2019-02-27T07:32:31.594Z,1332.00
2019-02-27T07:33:30.455Z,1328.00
2019-02-27T07:35:01.721Z,1328.00
2019-02-27T07:35:29.461Z,1324.00
2019-02-27T07:36:29.429Z,1328.00
2019-02-27T07:37:29.454Z,1328.00
2019-02-27T07:38:29.417Z,1336.00
2019-02-27T07:39:32.575Z,1336.00
2019-02-27T07:40:29.430Z,1336.00
2019-02-27T07:41:29.397Z,1344.00
2019-02-27T07:42:32.120Z,1344.00
2019-02-27T07:43:29.361Z,1352.00
2019-02-27T07:44:29.417Z,1356.00
2019-02-27T07:45:29.369Z,1364.00
2019-02-27T07:46:29.347Z,1368.00
2019-02-27T07:47:29.368Z,1380.00
2019-02-27T07:48:29.346Z,1384.00
2019-02-27T07:49:30.949Z,1388.00
2019-02-27T07:50:29.276Z,1384.00
2019-02-27T07:51:29.275Z,1380.00
2019-02-27T07:52:32.103Z,1384.00
2019-02-27T07:53:29.263Z,1380.00
2019-02-27T07:54:29.674Z,1384.00
2019-02-27T07:55:30.218Z,1380.00
2019-02-27T07:56:29.279Z,1376.00
2019-02-27T07:57:29.224Z,1372.00
2019-02-27T07:58:33.780Z,1376.00
2019-02-27T07:59:29.226Z,1388.00
2019-02-27T08:00:29.164Z,1392.00
2019-02-27T08:01:29.179Z,1400.00
2019-02-27T08:02:29.182Z,1396.00
2019-02-27T08:03:29.156Z,1396.00
2019-02-27T08:04:29.122Z,1384.00
2019-02-27T08:05:29.234Z,1380.00
2019-02-27T08:06:29.117Z,1392.00
2019-02-27T08:07:29.078Z,1400.00
2019-02-27T08:08:29.075Z,1404.00
2019-02-27T08:09:30.257Z,1400.00
2019-02-27T08:10:29.537Z,1400.00
2019-02-27T08:11:29.071Z,1400.00
2019-02-27T08:12:29.088Z,1400.00
2019-02-27T08:13:29.676Z,1404.00
2019-02-27T08:14:29.027Z,1412.00
2019-02-27T08:15:29.006Z,1412.00
2019-02-27T08:16:29.093Z,1416.00
2019-02-27T08:17:28.974Z,1424.00
2019-02-27T08:18:30.450Z,1428.00
2019-02-27T08:19:28.953Z,1432.00
2019-02-27T08:20:28.948Z,1444.00
2019-02-27T08:21:29.019Z,1460.00
2019-02-27T08:22:28.918Z,1476.00
2019-02-27T08:23:28.901Z,1468.00
2019-02-27T08:24:28.892Z,1472.00
2019-02-27T08:25:28.908Z,1452.00
2019-02-27T08:26:28.892Z,1444.00
2019-02-27T08:27:28.859Z,1440.00
2019-02-27T08:28:28.845Z,1428.00
2019-02-27T08:29:28.900Z,1440.00
2019-02-27T08:30:28.827Z,1440.00
2019-02-27T08:31:28.893Z,1444.00
2019-02-27T08:32:28.897Z,1432.00
2019-02-27T08:33:28.794Z,1444.00
2019-02-27T08:34:28.779Z,1444.00
2019-02-27T08:35:28.779Z,1452.00
2019-02-27T08:36:28.753Z,1456.00
2019-02-27T08:37:28.779Z,1460.00
2019-02-27T08:38:28.756Z,1464.00
2019-02-27T08:39:28.727Z,1472.00
2019-02-27T08:40:28.709Z,1484.00
2019-02-27T08:41:29.170Z,1484.00
2019-02-27T08:42:28.691Z,1488.00
2019-02-27T08:43:30.443Z,1488.00
2019-02-27T08:44:28.700Z,1484.00
2019-02-27T08:45:28.712Z,1488.00
2019-02-27T08:46:28.663Z,1492.00
2019-02-27T08:47:29.427Z,1496.00
2019-02-27T08:48:28.618Z,1496.00
2019-02-27T08:49:28.632Z,1504.00
2019-02-27T08:50:29.235Z,1508.00
2019-02-27T08:51:28.577Z,1496.00
2019-02-27T08:52:28.595Z,1504.00
2019-02-27T08:53:28.560Z,1500.00
2019-02-27T08:54:32.232Z,1500.00
2019-02-27T08:55:28.592Z,1500.00
2019-02-27T08:56:30.040Z,1500.00
2019-02-27T08:57:28.541Z,1504.00
2019-02-27T08:58:29.741Z,1504.00
2019-02-27T08:59:28.502Z,1508.00
2019-02-27T09:00:29.427Z,1520.00
2019-02-27T09:01:28.524Z,1524.00
2019-02-27T09:02:29.383Z,1532.00
2019-02-27T09:03:28.526Z,1528.00
2019-02-27T09:04:49.555Z,1528.00
2019-02-27T09:05:28.512Z,1528.00
2019-02-27T09:06:28.486Z,1520.00
2019-02-27T09:07:28.437Z,1508.00
2019-02-27T09:08:31.350Z,1500.00
2019-02-27T09:09:28.374Z,1496.00
2019-02-27T09:10:30.652Z,1496.00
2019-02-27T09:11:28.376Z,1496.00
2019-02-27T09:12:28.479Z,1500.00
2019-02-27T09:13:28.340Z,1500.00
2019-02-27T09:14:28.330Z,1500.00
2019-02-27T09:15:28.332Z,1508.00
2019-02-27T09:16:28.303Z,1508.00
2019-02-27T09:17:28.306Z,1504.00
2019-02-27T09:18:28.298Z,1500.00
2019-02-27T09:19:28.272Z,1500.00
2019-02-27T09:20:28.269Z,1504.00
2019-02-27T09:21:28.600Z,1504.00
2019-02-27T09:22:28.958Z,1504.00
2019-02-27T09:23:28.299Z,1504.00
2019-02-27T09:24:28.298Z,1504.00
2019-02-27T09:25:28.214Z,1500.00
2019-02-27T09:26:28.188Z,1504.00
2019-02-27T09:27:28.188Z,1500.00
2019-02-27T09:28:28.481Z,1500.00
2019-02-27T09:29:28.169Z,1500.00
2019-02-27T09:30:30.088Z,1500.00
2019-02-27T09:31:28.153Z,1496.00
2019-02-27T09:32:28.127Z,1496.00
2019-02-27T09:33:29.161Z,1500.00
2019-02-27T09:34:28.149Z,1504.00
2019-02-27T09:35:32.627Z,1508.00
2019-02-27T09:36:28.083Z,1508.00
2019-02-27T09:37:28.082Z,1508.00
2019-02-27T09:38:28.097Z,1512.00
2019-02-27T09:39:31.019Z,1516.00
2019-02-27T09:40:29.624Z,1512.00
2019-02-27T09:41:28.047Z,1512.00
2019-02-27T09:42:29.004Z,1516.00
2019-02-27T09:43:28.041Z,1512.00
2019-02-27T09:44:28.033Z,1520.00
2019-02-27T09:45:27.973Z,1516.00
2019-02-27T09:46:27.967Z,1516.00
2019-02-27T09:47:27.954Z,1520.00
2019-02-27T09:48:31.125Z,1520.00
2019-02-27T09:49:28.967Z,1520.00
2019-02-27T09:50:27.918Z,1524.00
2019-02-27T09:51:27.949Z,1528.00
2019-02-27T09:52:30.090Z,1528.00
2019-02-27T09:53:27.966Z,1528.00
2019-02-27T09:54:27.907Z,1532.00
2019-02-27T09:55:27.878Z,1536.00
2019-02-27T09:56:29.120Z,1532.00
2019-02-27T09:57:27.898Z,1536.00
2019-02-27T09:58:29.349Z,1536.00
2019-02-27T09:59:27.822Z,1536.00
2019-02-27T10:00:27.873Z,1540.00
2019-02-27T10:01:29.146Z,1540.00
2019-02-27T10:02:27.790Z,1540.00
2019-02-27T10:03:27.816Z,1544.00
2019-02-27T10:04:28.952Z,1548.00
2019-02-27T10:05:27.745Z,1548.00
2019-02-27T10:06:27.791Z,1552.00
2019-02-27T10:07:27.731Z,1552.00
2019-02-27T10:08:27.758Z,1552.00
2019-02-27T10:09:27.710Z,1556.00
2019-02-27T10:10:27.694Z,1556.00
2019-02-27T10:11:27.701Z,1560.00
2019-02-27T10:12:27.835Z,1564.00
2019-02-27T10:13:27.680Z,1564.00
2019-02-27T10:14:27.647Z,1568.00
2019-02-27T10:15:27.686Z,1568.00
2019-02-27T10:16:27.707Z,1564.00
2019-02-27T10:17:28.603Z,1572.00
2019-02-27T10:18:27.634Z,1576.00
2019-02-27T10:19:27.780Z,1576.00
2019-02-27T10:20:27.576Z,1576.00
2019-02-27T10:21:27.577Z,1576.00
2019-02-27T10:22:27.604Z,1576.00
2019-02-27T10:23:30.398Z,1576.00
2019-02-27T10:24:27.555Z,1568.00
2019-02-27T10:25:28.562Z,1572.00
2019-02-27T10:26:27.510Z,1576.00
2019-02-27T10:27:28.838Z,1580.00
2019-02-27T10:28:27.500Z,1584.00
2019-02-27T10:29:27.512Z,1584.00
2019-02-27T10:30:27.497Z,1588.00
2019-02-27T10:31:27.471Z,1588.00
2019-02-27T10:32:27.456Z,1584.00
2019-02-27T10:33:27.470Z,1588.00
2019-02-27T10:34:27.456Z,1588.00
2019-02-27T10:35:29.520Z,1596.00
2019-02-27T10:36:27.413Z,1596.00
2019-02-27T10:37:27.408Z,1596.00
2019-02-27T10:38:27.411Z,1596.00
2019-02-27T10:39:27.401Z,1600.00
2019-02-27T10:40:27.367Z,1600.00
2019-02-27T10:41:27.369Z,1604.00
2019-02-27T10:42:27.353Z,1608.00
2019-02-27T10:43:27.319Z,1612.00
2019-02-27T10:44:27.304Z,1616.00
2019-02-27T10:45:27.377Z,1620.00
2019-02-27T10:46:27.286Z,1616.00
2019-02-27T10:47:27.279Z,1620.00
2019-02-27T10:48:27.262Z,1620.00
2019-02-27T10:49:27.294Z,1624.00
2019-02-27T10:50:27.241Z,1624.00
2019-02-27T10:51:27.276Z,1628.00
2019-02-27T10:52:27.238Z,1636.00
2019-02-27T10:53:27.899Z,1636.00
2019-02-27T10:54:27.197Z,1636.00
2019-02-27T10:55:27.286Z,1636.00
2019-02-27T10:56:27.190Z,1636.00
2019-02-27T10:57:31.598Z,1640.00
2019-02-27T10:58:27.150Z,1648.00
2019-02-27T10:59:27.142Z,1652.00
2019-02-27T11:00:27.181Z,1652.00
2019-02-27T11:01:27.121Z,1660.00
2019-02-27T11:02:27.428Z,1664.00
2019-02-27T11:03:27.440Z,1676.00
2019-02-27T11:04:27.122Z,1684.00
2019-02-27T11:05:27.073Z,1688.00
2019-02-27T11:06:33.807Z,1692.00
2019-02-27T11:07:28.059Z,1696.00
2019-02-27T11:08:29.605Z,1704.00
2019-02-27T11:09:27.100Z,1708.00
2019-02-27T11:10:27.040Z,1708.00
2019-02-27T11:11:27.016Z,1708.00
2019-02-27T11:12:29.454Z,1716.00
2019-02-27T11:13:26.979Z,1720.00
2019-02-27T11:14:31.783Z,1728.00
2019-02-27T11:15:27.996Z,1740.00
2019-02-27T11:16:27.947Z,1748.00
2019-02-27T11:17:26.946Z,1764.00
2019-02-27T11:18:26.957Z,1768.00
2019-02-27T11:19:26.938Z,1788.00
2019-02-27T11:20:26.942Z,1804.00
2019-02-27T11:21:26.915Z,1808.00
2019-02-27T11:22:26.961Z,1828.00
2019-02-27T11:23:26.881Z,1840.00
2019-02-27T11:24:26.863Z,1852.00
2019-02-27T11:25:26.865Z,1868.00
2019-02-27T11:26:26.879Z,1888.00
2019-02-27T11:27:26.838Z,1892.00
2019-02-27T11:28:26.867Z,1904.00
2019-02-27T11:29:26.803Z,1908.00
2019-02-27T11:30:26.798Z,1932.00
2019-02-27T11:31:26.829Z,1944.00
2019-02-27T11:32:27.430Z,1948.00
2019-02-27T11:33:26.767Z,1964.00
2019-02-27T11:34:26.751Z,1980.00
2019-02-27T11:35:26.745Z,2008.00
2019-02-27T11:36:26.737Z,2024.00
2019-02-27T11:37:26.728Z,2044.00
2019-02-27T11:38:26.747Z,2068.00
2019-02-27T11:39:26.710Z,2084.00
2019-02-27T11:40:26.693Z,2104.00
2019-02-27T11:41:26.677Z,2124.00
2019-02-27T11:42:29.021Z,2136.00
2019-02-27T11:43:27.681Z,2156.00
2019-02-27T11:44:26.685Z,2176.00
2019-02-27T11:45:26.651Z,2192.00
2019-02-27T11:46:26.635Z,2212.00
2019-02-27T11:47:26.614Z,2236.00
2019-02-27T11:48:26.601Z,2252.00
2019-02-27T11:49:26.636Z,2280.00
2019-02-27T11:50:26.587Z,2304.00
2019-02-27T11:51:27.981Z,2348.00
2019-02-27T11:52:28.666Z,2360.00
2019-02-27T11:53:26.544Z,2340.00
2019-02-27T11:54:26.556Z,2360.00
2019-02-27T11:55:26.523Z,2416.00
2019-02-27T11:56:26.531Z,2480.00
2019-02-27T11:57:27.286Z,2448.00
2019-02-27T11:58:26.481Z,2468.00
2019-02-27T11:59:26.540Z,2552.00
2019-02-27T12:00:27.431Z,2580.00
2019-02-27T12:01:26.483Z,2620.00
2019-02-27T12:02:29.029Z,2644.00
2019-02-27T12:03:26.430Z,2676.00
2019-02-27T12:04:26.443Z,2700.00
2019-02-27T12:05:31.383Z,2736.00
2019-02-27T12:06:27.388Z,2768.00
2019-02-27T12:07:26.419Z,2796.00
2019-02-27T12:08:26.855Z,2828.00
2019-02-27T12:09:26.365Z,2856.00
2019-02-27T12:10:26.396Z,2892.00
2019-02-27T12:11:26.335Z,2924.00
2019-02-27T12:12:26.327Z,2948.00
2019-02-27T12:13:26.314Z,2980.00
2019-02-27T12:14:26.316Z,3016.00
2019-02-27T12:15:27.306Z,3048.00
2019-02-27T12:16:26.324Z,3076.00
2019-02-27T12:17:26.320Z,3108.00
2019-02-27T12:18:26.264Z,3144.00
2019-02-27T12:19:26.244Z,3168.00
2019-02-27T12:20:26.227Z,3192.00
2019-02-27T12:21:26.341Z,3224.00
2019-02-27T12:22:26.216Z,3256.00
2019-02-27T12:23:26.221Z,3280.00
2019-02-27T12:24:26.201Z,3312.00
2019-02-27T12:25:28.982Z,3308.00
2019-02-27T12:26:26.186Z,3356.00
2019-02-27T12:27:47.730Z,3380.00
2019-02-27T12:28:27.148Z,3428.00
2019-02-27T12:29:26.575Z,3456.00
2019-02-27T12:30:26.123Z,3476.00
2019-02-27T12:31:26.105Z,3504.00
2019-02-27T12:32:26.107Z,3536.00
2019-02-27T12:33:29.226Z,3548.00
2019-02-27T12:34:26.099Z,3584.00
2019-02-27T12:35:26.076Z,3612.00
2019-02-27T12:36:26.058Z,3632.00
2019-02-27T12:37:28.311Z,3652.00
2019-02-27T12:38:26.119Z,3560.00
2019-02-27T12:39:26.022Z,3688.00
2019-02-27T12:40:26.009Z,3716.00
2019-02-27T12:41:26.027Z,3740.00
2019-02-27T12:42:25.988Z,3736.00
2019-02-27T12:43:25.991Z,3780.00